createdAt,value
2019-03-28T00:00:11.177Z,32.35
2019-03-28T00:02:40.380Z,32.66
2019-03-28T00:05:09.798Z,32.83
2019-03-28T00:07:38.984Z,32.83
2019-03-28T00:10:08.602Z,33.22
2019-03-28T00:12:37.744Z,33.22
2019-03-28T00:15:08.286Z,33.05
2019-03-28T00:17:37.681Z,32.93
2019-03-28T00:20:07.181Z,32.76
2019-03-28T00:22:41.081Z,33.02
2019-03-28T00:25:14.441Z,33.32
2019-03-28T00:27:43.637Z,33.23
2019-03-28T00:30:13.530Z,33.38
2019-03-28T00:32:42.775Z,33.91
2019-03-28T00:35:11.986Z,33.84
2019-03-28T00:37:41.203Z,33.61
2019-03-28T00:40:10.814Z,33.47
2019-03-28T00:42:40.089Z,33.47
2019-03-28T00:45:09.743Z,33.88
2019-03-28T00:47:39.061Z,33.68
2019-03-28T00:50:08.867Z,33.87
2019-03-28T00:52:38.127Z,34.19
2019-03-28T00:55:07.428Z,34.19
2019-03-28T00:57:36.639Z,34.07
2019-03-28T01:00:07.381Z,33.89
2019-03-28T01:02:36.610Z,34.41
2019-03-28T01:05:07.212Z,34.14
2019-03-28T01:07:36.472Z,33.99
2019-03-28T01:10:07.275Z,33.99
2019-03-28T01:12:36.421Z,35.07
2019-03-28T01:15:07.970Z,35.22
2019-03-28T01:17:37.190Z,35.22
2019-03-28T01:20:07.296Z,36.56
2019-03-28T01:22:36.548Z,35.81
2019-03-28T01:25:06.737Z,36.34
2019-03-28T01:27:35.950Z,35.81
2019-03-28T01:30:07.397Z,36.23
2019-03-28T01:32:36.630Z,35.83
2019-03-28T01:35:06.547Z,35.78
2019-03-28T01:37:35.785Z,35.78
2019-03-28T01:40:06.632Z,35.75
2019-03-28T01:42:35.821Z,35.77
2019-03-28T01:45:06.542Z,35.84
2019-03-28T01:47:35.786Z,35.31
2019-03-28T01:50:07.064Z,35.88
2019-03-28T01:52:36.318Z,35.88
2019-03-28T01:55:07.524Z,35.75
2019-03-28T01:57:36.662Z,35.58
2019-03-28T02:00:08.347Z,35.73
2019-03-28T02:02:37.555Z,35.73
2019-03-28T02:05:08.085Z,35.79
2019-03-28T02:07:37.247Z,36.19
2019-03-28T02:10:06.958Z,36.19
2019-03-28T02:12:36.170Z,36.12
2019-03-28T02:15:08.282Z,36.21
2019-03-28T02:17:37.480Z,36.00
2019-03-28T02:20:11.104Z,36.00
2019-03-28T02:22:40.289Z,36.48
2019-03-28T02:25:09.682Z,36.48
2019-03-28T02:27:38.881Z,36.27
2019-03-28T02:30:09.516Z,35.96
2019-03-28T02:32:38.659Z,35.61
2019-03-28T02:35:08.573Z,35.60
2019-03-28T02:37:37.825Z,38.80
2019-03-28T02:40:07.783Z,39.09
2019-03-28T02:42:36.973Z,39.09
2019-03-28T02:45:07.227Z,38.23
2019-03-28T02:47:36.436Z,38.23
2019-03-28T02:50:06.986Z,37.59
2019-03-28T02:52:36.178Z,37.59
2019-03-28T02:55:07.005Z,36.16
2019-03-28T02:57:41.816Z,36.16
2019-03-28T03:00:08.400Z,35.60
2019-03-28T03:02:37.584Z,35.60
2019-03-28T03:05:08.099Z,35.50
2019-03-28T03:07:37.193Z,35.67
2019-03-28T03:10:08.093Z,35.58
2019-03-28T03:12:37.222Z,35.87
2019-03-28T03:15:08.167Z,35.87
2019-03-28T03:17:37.364Z,35.99
2019-03-28T03:20:07.574Z,36.05
2019-03-28T03:22:36.825Z,36.05
2019-03-28T03:25:07.454Z,35.85
2019-03-28T03:27:36.642Z,35.71
2019-03-28T03:30:08.594Z,37.17
2019-03-28T03:32:38.183Z,37.17
2019-03-28T03:35:07.571Z,36.89
2019-03-28T03:37:36.810Z,36.89
2019-03-28T03:40:08.592Z,36.97
2019-03-28T03:42:37.812Z,36.97
2019-03-28T03:45:09.291Z,37.29
2019-03-28T03:47:38.933Z,37.12
2019-03-28T03:50:08.895Z,37.41
2019-03-28T03:52:38.114Z,37.53
2019-03-28T03:55:07.921Z,38.12
2019-03-28T03:57:37.055Z,39.86
2019-03-28T04:00:07.594Z,39.86
2019-03-28T04:02:36.950Z,40.21
2019-03-28T04:05:07.206Z,40.18
2019-03-28T04:07:36.451Z,40.10
2019-03-28T04:10:06.851Z,39.84
2019-03-28T04:12:36.174Z,39.84
2019-03-28T04:15:06.685Z,39.71
2019-03-28T04:17:35.895Z,39.74
2019-03-28T04:20:06.906Z,40.14
2019-03-28T04:22:36.988Z,39.97
2019-03-28T04:25:07.227Z,40.33
2019-03-28T04:27:36.388Z,40.05
2019-03-28T04:30:07.799Z,40.34
2019-03-28T04:32:37.016Z,40.22
2019-03-28T04:35:06.836Z,40.15
2019-03-28T04:37:36.064Z,40.10
2019-03-28T04:40:09.007Z,39.99
2019-03-28T04:42:38.291Z,40.80
2019-03-28T04:45:08.533Z,40.18
2019-03-28T04:47:37.652Z,40.27
2019-03-28T04:50:08.355Z,40.37
2019-03-28T04:52:37.587Z,40.14
2019-03-28T04:55:07.230Z,40.43
2019-03-28T04:57:36.436Z,40.10
2019-03-28T05:00:07.685Z,39.86
2019-03-28T05:02:36.942Z,39.85
2019-03-28T05:05:07.466Z,39.62
2019-03-28T05:07:36.690Z,39.08
2019-03-28T05:10:08.284Z,39.29
2019-03-28T05:12:37.441Z,39.21
2019-03-28T05:15:12.130Z,39.03
2019-03-28T05:17:41.356Z,38.93
2019-03-28T05:20:13.280Z,38.61
2019-03-28T05:22:42.346Z,38.46
2019-03-28T05:25:11.942Z,38.46
2019-03-28T05:27:41.136Z,38.32
2019-03-28T05:30:11.173Z,38.75
2019-03-28T05:32:40.305Z,38.83
2019-03-28T05:35:09.637Z,38.77
2019-03-28T05:37:38.729Z,38.26
2019-03-28T05:40:08.433Z,38.26
2019-03-28T05:42:37.630Z,38.40
2019-03-28T05:45:10.074Z,38.23
2019-03-28T05:47:39.224Z,38.83
2019-03-28T05:50:09.038Z,38.73
2019-03-28T05:52:38.209Z,38.73
2019-03-28T05:55:08.011Z,38.89
2019-03-28T05:57:37.141Z,38.46
2019-03-28T06:00:06.979Z,38.65
2019-03-28T06:02:36.201Z,38.20
2019-03-28T06:05:07.077Z,38.17
2019-03-28T06:07:36.459Z,38.10
2019-03-28T06:10:07.955Z,38.04
2019-03-28T06:12:37.103Z,37.97
2019-03-28T06:15:08.094Z,37.58
2019-03-28T06:17:37.299Z,37.61
2019-03-28T06:20:08.012Z,37.26
2019-03-28T06:22:37.354Z,36.96
2019-03-28T06:25:06.578Z,36.86
2019-03-28T06:27:35.710Z,36.32
2019-03-28T06:30:07.545Z,36.38
2019-03-28T06:32:42.790Z,35.77
2019-03-28T06:35:07.689Z,35.39
2019-03-28T06:37:36.863Z,35.39
2019-03-28T06:40:07.435Z,35.26
2019-03-28T06:42:36.657Z,34.99
2019-03-28T06:45:07.589Z,35.17
2019-03-28T06:47:36.824Z,34.76
2019-03-28T06:50:07.035Z,34.70
2019-03-28T06:52:36.267Z,34.77
2019-03-28T06:55:06.100Z,34.43
2019-03-28T06:57:35.306Z,34.01
2019-03-28T07:00:07.216Z,33.65
2019-03-28T07:02:36.508Z,33.60
2019-03-28T07:05:06.205Z,33.57
2019-03-28T07:07:35.452Z,33.20
2019-03-28T07:10:06.777Z,33.23
2019-03-28T07:12:35.928Z,33.12
2019-03-28T07:15:08.086Z,33.32
2019-03-28T07:17:37.244Z,32.77
2019-03-28T07:20:08.985Z,32.52
2019-03-28T07:22:37.989Z,32.37
2019-03-28T07:25:07.713Z,32.19
2019-03-28T07:27:36.861Z,32.14
2019-03-28T07:30:09.182Z,31.92
2019-03-28T07:32:38.424Z,31.80
2019-03-28T07:35:07.938Z,31.95
2019-03-28T07:37:37.215Z,32.08
2019-03-28T07:40:08.357Z,31.83
2019-03-28T07:42:37.574Z,31.71
2019-03-28T07:45:08.835Z,31.64
2019-03-28T07:47:38.053Z,31.26
2019-03-28T07:50:09.069Z,31.31
2019-03-28T07:52:38.310Z,30.98
2019-03-28T07:55:08.504Z,30.60
2019-03-28T07:57:37.663Z,30.79
2019-03-28T08:00:12.019Z,30.15
2019-03-28T08:02:41.319Z,29.57
2019-03-28T08:05:11.534Z,29.82
2019-03-28T08:07:45.483Z,30.12
2019-03-28T08:10:12.778Z,30.01
2019-03-28T08:12:42.013Z,30.00
2019-03-28T08:15:12.278Z,29.98
2019-03-28T08:17:41.485Z,29.72
2019-03-28T08:20:12.001Z,29.87
2019-03-28T08:22:41.195Z,30.25
2019-03-28T08:25:13.719Z,29.96
2019-03-28T08:27:43.086Z,29.94
2019-03-28T08:30:18.864Z,29.73
2019-03-28T08:32:43.885Z,29.81
2019-03-28T08:35:13.608Z,29.47
2019-03-28T08:37:43.562Z,28.88
2019-03-28T08:40:15.687Z,28.73
2019-03-28T08:42:44.946Z,28.99
2019-03-28T08:45:14.430Z,28.80
2019-03-28T08:47:43.713Z,28.44
2019-03-28T08:50:12.933Z,28.85
2019-03-28T08:52:42.100Z,28.96
2019-03-28T08:55:11.629Z,29.04
2019-03-28T08:57:40.767Z,28.65
2019-03-28T09:00:11.688Z,29.23
2019-03-28T09:02:40.891Z,29.26
2019-03-28T09:05:10.102Z,29.47
2019-03-28T09:07:39.412Z,28.67
2019-03-28T09:10:08.947Z,27.94
2019-03-28T09:12:38.339Z,28.33
2019-03-28T09:15:09.101Z,27.63
2019-03-28T09:17:38.338Z,27.43
2019-03-28T09:20:08.044Z,27.35
2019-03-28T09:22:38.974Z,26.45
2019-03-28T09:25:08.670Z,26.40
2019-03-28T09:27:37.932Z,25.86
2019-03-28T09:30:09.708Z,26.14
2019-03-28T09:32:38.988Z,26.51
2019-03-28T09:35:10.105Z,26.05
2019-03-28T09:37:39.352Z,25.86
2019-03-28T09:40:08.864Z,25.20
2019-03-28T09:42:38.074Z,25.14
2019-03-28T09:45:07.908Z,25.46
2019-03-28T09:47:37.131Z,24.66
2019-03-28T09:50:07.750Z,24.49
2019-03-28T09:52:36.981Z,23.90
2019-03-28T09:55:07.009Z,23.71
2019-03-28T09:57:36.091Z,23.53
2019-03-28T10:00:08.240Z,22.87
2019-03-28T10:02:37.523Z,21.75
2019-03-28T10:05:08.097Z,21.71
2019-03-28T10:07:38.655Z,21.47
2019-03-28T10:10:09.466Z,21.01
2019-03-28T10:12:38.653Z,21.04
2019-03-28T10:15:08.671Z,20.37
2019-03-28T10:17:37.873Z,21.13
2019-03-28T10:20:09.009Z,20.95
2019-03-28T10:22:38.821Z,20.84
2019-03-28T10:25:08.637Z,20.54
2019-03-28T10:27:38.081Z,20.38
2019-03-28T10:30:09.307Z,20.83
2019-03-28T10:32:38.475Z,20.81
2019-03-28T10:35:08.087Z,21.12
2019-03-28T10:37:37.254Z,20.53
2019-03-28T10:40:08.092Z,20.56
2019-03-28T10:42:37.239Z,20.39
2019-03-28T10:45:07.607Z,20.16
2019-03-28T10:47:36.818Z,19.68
2019-03-28T10:50:07.323Z,20.24
2019-03-28T10:52:36.622Z,20.20
2019-03-28T10:55:06.403Z,19.91
2019-03-28T10:57:35.623Z,20.03
2019-03-28T11:00:07.746Z,19.44
2019-03-28T11:02:36.944Z,19.23
2019-03-28T11:05:06.638Z,19.10
2019-03-28T11:07:35.959Z,18.77
2019-03-28T11:10:07.106Z,19.29
2019-03-28T11:12:36.294Z,19.13
2019-03-28T11:15:06.957Z,18.85
2019-03-28T11:17:36.101Z,18.36
2019-03-28T11:20:06.704Z,17.74
2019-03-28T11:22:35.940Z,17.77
2019-03-28T11:25:06.775Z,17.71
2019-03-28T11:27:35.958Z,18.54
2019-03-28T11:30:07.926Z,18.13
2019-03-28T11:32:37.274Z,18.86
2019-03-28T11:35:08.074Z,18.30
2019-03-28T11:37:37.800Z,18.09
2019-03-28T11:40:09.327Z,18.56
2019-03-28T11:42:41.308Z,18.65
2019-03-28T11:45:11.256Z,18.19
2019-03-28T11:47:40.468Z,17.72
2019-03-28T11:50:10.705Z,18.08
2019-03-28T11:52:42.569Z,18.63
2019-03-28T11:55:11.252Z,17.82
2019-03-28T11:57:40.463Z,16.66
2019-03-28T12:00:16.362Z,16.74
2019-03-28T12:02:45.486Z,16.55
2019-03-28T12:05:15.195Z,16.64
2019-03-28T12:07:44.597Z,16.56
2019-03-28T12:10:14.190Z,16.40
2019-03-28T12:12:43.361Z,16.83
2019-03-28T12:15:14.081Z,16.74
2019-03-28T12:17:43.222Z,16.61
2019-03-28T12:20:12.608Z,16.30
2019-03-28T12:22:41.779Z,16.23
2019-03-28T12:25:11.283Z,15.73
2019-03-28T12:27:40.606Z,16.00
2019-03-28T12:30:12.058Z,15.83
2019-03-28T12:32:41.260Z,16.03
2019-03-28T12:35:11.368Z,15.96
2019-03-28T12:37:40.614Z,15.82
2019-03-28T12:40:10.536Z,16.64
2019-03-28T12:42:39.732Z,16.26
2019-03-28T12:45:11.094Z,15.95
2019-03-28T12:47:42.682Z,15.48
2019-03-28T12:50:12.719Z,15.40
2019-03-28T12:52:42.297Z,15.76
2019-03-28T12:55:11.903Z,15.66
2019-03-28T12:57:41.110Z,15.51
2019-03-28T13:00:12.235Z,15.33
2019-03-28T13:02:41.386Z,15.37
2019-03-28T13:05:11.425Z,14.79
2019-03-28T13:07:40.941Z,14.58
2019-03-28T13:10:11.917Z,14.37
2019-03-28T13:12:41.126Z,14.28
2019-03-28T13:15:10.959Z,14.19
2019-03-28T13:17:40.090Z,14.16
2019-03-28T13:20:10.823Z,14.41
2019-03-28T13:22:40.140Z,14.91
2019-03-28T13:25:09.760Z,15.41
2019-03-28T13:27:38.964Z,15.03
2019-03-28T13:30:13.470Z,14.51
2019-03-28T13:32:42.819Z,14.57
2019-03-28T13:35:12.126Z,14.69
2019-03-28T13:37:41.515Z,14.49
2019-03-28T13:40:11.233Z,14.23
2019-03-28T13:42:40.468Z,13.99
2019-03-28T13:45:11.860Z,13.81
2019-03-28T13:47:41.068Z,14.04
2019-03-28T13:50:11.545Z,13.97
2019-03-28T13:52:41.967Z,13.79
2019-03-28T13:55:11.272Z,13.29
2019-03-28T13:57:43.276Z,13.02
2019-03-28T14:00:13.735Z,13.67
2019-03-28T14:02:55.583Z,13.82
2019-03-28T14:05:13.723Z,14.19
2019-03-28T14:07:42.969Z,13.99
2019-03-28T14:10:12.180Z,14.02
2019-03-28T14:12:41.405Z,13.93
2019-03-28T14:15:10.918Z,13.75
2019-03-28T14:17:40.071Z,13.43
2019-03-28T14:20:10.250Z,12.92
2019-03-28T14:22:39.433Z,13.12
2019-03-28T14:25:08.948Z,13.08
2019-03-28T14:27:38.078Z,12.95
2019-03-28T14:30:11.638Z,13.26
2019-03-28T14:32:52.512Z,13.37
2019-03-28T14:35:12.218Z,13.22
2019-03-28T14:37:41.513Z,13.22
2019-03-28T14:40:12.518Z,13.34
2019-03-28T14:42:41.742Z,13.14
2019-03-28T14:45:12.193Z,13.21
2019-03-28T14:47:41.576Z,13.52
2019-03-28T14:50:11.898Z,14.08
2019-03-28T14:52:41.302Z,13.57
2019-03-28T14:55:11.229Z,13.65
2019-03-28T14:57:41.323Z,13.68
2019-03-28T15:00:19.183Z,14.58
2019-03-28T15:02:50.488Z,14.49
2019-03-28T15:05:19.698Z,14.85
2019-03-28T15:07:48.812Z,15.00
2019-03-28T15:10:18.026Z,14.92
2019-03-28T15:12:47.299Z,14.88
2019-03-28T15:15:16.576Z,14.66
2019-03-28T15:17:45.866Z,14.43
2019-03-28T15:20:15.064Z,14.33
2019-03-28T15:22:44.346Z,14.36
2019-03-28T15:25:13.721Z,14.35
2019-03-28T15:27:42.994Z,14.24
2019-03-28T15:30:12.267Z,14.00
2019-03-28T15:32:41.489Z,13.66
2019-03-28T15:35:10.687Z,13.41
2019-03-28T15:37:39.945Z,13.70
2019-03-28T15:40:10.249Z,13.97
2019-03-28T15:42:39.669Z,13.81
2019-03-28T15:45:09.132Z,13.73
2019-03-28T15:47:38.469Z,13.95
2019-03-28T15:50:08.121Z,14.01
2019-03-28T15:52:37.515Z,13.93
2019-03-28T15:55:07.845Z,13.80
2019-03-28T15:57:37.154Z,13.70
2019-03-28T16:00:08.098Z,14.10
2019-03-28T16:02:37.291Z,14.42
2019-03-28T16:05:07.304Z,14.48
2019-03-28T16:07:36.620Z,14.78
2019-03-28T16:10:09.029Z,14.62
2019-03-28T16:12:38.226Z,14.53
2019-03-28T16:15:10.373Z,14.71
2019-03-28T16:17:39.598Z,14.87
2019-03-28T16:20:10.239Z,14.81
2019-03-28T16:22:39.420Z,15.06
2019-03-28T16:25:08.883Z,15.20
2019-03-28T16:27:38.091Z,15.35
2019-03-28T16:30:12.558Z,15.71
2019-03-28T16:32:41.778Z,15.89
2019-03-28T16:35:12.738Z,16.15
2019-03-28T16:37:41.984Z,16.58
2019-03-28T16:40:11.561Z,16.83
2019-03-28T16:42:41.725Z,17.47
2019-03-28T16:45:11.182Z,17.93
2019-03-28T16:47:40.387Z,18.41
2019-03-28T16:50:10.021Z,18.76
2019-03-28T16:52:39.265Z,19.31
2019-03-28T16:55:08.673Z,19.82
2019-03-28T16:57:37.891Z,20.61
2019-03-28T17:00:15.737Z,20.69
2019-03-28T17:02:45.267Z,21.44
2019-03-28T17:05:15.563Z,21.57
2019-03-28T17:07:45.607Z,21.78
2019-03-28T17:10:43.324Z,22.02
2019-03-28T17:13:12.589Z,22.18
2019-03-28T17:15:41.824Z,22.76
2019-03-28T17:18:11.056Z,22.88
2019-03-28T17:20:40.814Z,23.30
2019-03-28T17:23:10.530Z,23.28
2019-03-28T17:25:39.722Z,23.88
2019-03-28T17:28:09.041Z,23.85
2019-03-28T17:30:38.418Z,24.53
2019-03-28T17:33:07.552Z,24.44
2019-03-28T17:35:36.827Z,24.56
2019-03-28T17:38:06.084Z,24.91
2019-03-28T17:40:36.770Z,25.07
2019-03-28T17:43:06.317Z,25.26
2019-03-28T17:45:35.562Z,25.25
2019-03-28T17:48:05.351Z,25.48
2019-03-28T17:50:35.436Z,25.67
2019-03-28T17:53:04.707Z,25.62
2019-03-28T17:55:33.935Z,25.80
2019-03-28T17:58:03.187Z,25.83
2019-03-28T18:00:32.422Z,25.79
2019-03-28T18:03:09.018Z,26.13
2019-03-28T18:05:32.659Z,26.16
2019-03-28T18:08:01.888Z,25.98
2019-03-28T18:10:31.170Z,25.98
2019-03-28T18:13:00.463Z,26.32
2019-03-28T18:15:31.334Z,26.05
2019-03-28T18:18:00.562Z,26.22
2019-03-28T18:20:29.819Z,26.61
2019-03-28T18:22:59.050Z,26.46
2019-03-28T18:25:30.312Z,26.65
2019-03-28T18:27:59.235Z,26.85
2019-03-28T18:30:28.450Z,26.93
2019-03-28T18:32:57.672Z,27.00
2019-03-28T18:35:27.067Z,27.07
2019-03-28T18:37:56.288Z,27.07
2019-03-28T18:40:25.500Z,27.06
2019-03-28T18:42:54.879Z,27.19
2019-03-28T18:45:24.176Z,26.89
2019-03-28T18:47:53.362Z,27.34
2019-03-28T18:50:22.632Z,27.39
2019-03-28T18:52:51.766Z,27.60
2019-03-28T18:55:20.991Z,27.64
2019-03-28T18:57:50.420Z,27.90
2019-03-28T19:00:20.041Z,27.89
2019-03-28T19:02:49.192Z,27.95
2019-03-28T19:05:19.984Z,28.06
2019-03-28T19:07:49.361Z,27.89
2019-03-28T19:10:18.890Z,28.53
2019-03-28T19:12:48.155Z,28.19
2019-03-28T19:15:17.473Z,28.41
2019-03-28T19:17:46.694Z,28.35
2019-03-28T19:20:17.669Z,28.33
2019-03-28T19:22:50.100Z,28.50
2019-03-28T19:25:18.212Z,28.35
2019-03-28T19:27:47.531Z,28.41
2019-03-28T19:30:19.514Z,28.34
2019-03-28T19:32:48.942Z,28.58
2019-03-28T19:35:18.362Z,28.61
2019-03-28T19:37:47.988Z,28.58
2019-03-28T19:40:17.526Z,28.82
2019-03-28T19:42:47.302Z,28.89
2019-03-28T19:45:19.424Z,29.03
2019-03-28T19:47:48.563Z,29.19
2019-03-28T19:50:29.106Z,29.20
2019-03-28T19:52:57.313Z,29.12
2019-03-28T19:55:26.526Z,29.23
2019-03-28T19:57:55.792Z,29.52
2019-03-28T20:00:25.037Z,29.95
2019-03-28T20:02:54.427Z,29.90
2019-03-28T20:05:23.708Z,30.31
2019-03-28T20:07:52.915Z,30.04
2019-03-28T20:10:22.156Z,30.21
2019-03-28T20:12:51.340Z,30.14
2019-03-28T20:15:20.667Z,30.12
2019-03-28T20:17:49.916Z,30.52
2019-03-28T20:20:19.154Z,30.21
2019-03-28T20:22:48.383Z,30.53
2019-03-28T20:25:17.674Z,30.07
2019-03-28T20:27:46.959Z,30.50
2019-03-28T20:30:18.175Z,30.88
2019-03-28T20:32:47.613Z,30.78
2019-03-28T20:35:17.773Z,31.15
2019-03-28T20:37:47.250Z,30.80
2019-03-28T20:40:17.256Z,30.91
2019-03-28T20:42:46.510Z,31.02
2019-03-28T20:45:16.721Z,30.98
2019-03-28T20:47:45.966Z,31.38
2019-03-28T20:50:15.931Z,30.80
2019-03-28T20:52:45.922Z,31.26
2019-03-28T20:55:15.938Z,31.10
2019-03-28T20:57:45.194Z,31.42
2019-03-28T21:00:16.577Z,31.42
2019-03-28T21:02:45.962Z,31.22
2019-03-28T21:05:22.812Z,31.05
2019-03-28T21:07:52.324Z,31.06
2019-03-28T21:10:26.212Z,30.84
2019-03-28T21:12:55.578Z,30.73
2019-03-28T21:15:24.812Z,30.47
2019-03-28T21:17:54.525Z,30.34
2019-03-28T21:20:24.843Z,30.20
2019-03-28T21:22:54.140Z,30.34
2019-03-28T21:25:23.435Z,30.02
2019-03-28T21:27:52.691Z,30.02
2019-03-28T21:30:22.117Z,30.00
2019-03-28T21:32:55.714Z,30.01
2019-03-28T21:35:22.876Z,29.76
2019-03-28T21:37:52.143Z,29.68
2019-03-28T21:40:21.378Z,29.79
2019-03-28T21:42:50.679Z,29.86
2019-03-28T21:45:19.904Z,29.84
2019-03-28T21:47:49.135Z,29.89
2019-03-28T21:50:18.392Z,29.78
2019-03-28T21:52:47.607Z,29.89
2019-03-28T21:55:17.118Z,29.97
2019-03-28T21:57:46.376Z,30.13
2019-03-28T22:00:17.097Z,29.74
2019-03-28T22:02:46.303Z,30.36
2019-03-28T22:05:16.928Z,30.21
2019-03-28T22:07:46.149Z,30.48
2019-03-28T22:10:16.985Z,30.46
2019-03-28T22:12:46.354Z,30.60
2019-03-28T22:15:15.692Z,30.73
2019-03-28T22:17:45.045Z,30.80
2019-03-28T22:20:14.533Z,30.73
2019-03-28T22:22:43.802Z,30.86
2019-03-28T22:25:13.078Z,30.96
2019-03-28T22:27:42.398Z,30.98
2019-03-28T22:30:13.048Z,31.00
2019-03-28T22:32:42.442Z,31.03
2019-03-28T22:35:11.688Z,31.44
2019-03-28T22:37:40.838Z,31.44
2019-03-28T22:40:12.110Z,31.45
2019-03-28T22:42:41.490Z,31.43
2019-03-28T22:45:13.617Z,31.43
2019-03-28T22:47:42.955Z,31.47
2019-03-28T22:50:12.628Z,31.48
2019-03-28T22:52:41.931Z,31.72
2019-03-28T22:55:11.764Z,31.88
2019-03-28T22:57:41.874Z,31.83
2019-03-28T23:00:13.505Z,32.05
2019-03-28T23:02:42.983Z,32.72
2019-03-28T23:05:12.940Z,32.80
2019-03-28T23:07:42.146Z,33.13
2019-03-28T23:10:11.900Z,32.86
2019-03-28T23:12:41.155Z,32.82
2019-03-28T23:15:11.279Z,32.78
2019-03-28T23:17:40.573Z,32.73
2019-03-28T23:20:11.780Z,32.70
2019-03-28T23:22:41.046Z,33.02
2019-03-28T23:25:10.951Z,32.84
2019-03-28T23:27:40.407Z,32.88
2019-03-28T23:30:10.327Z,33.54
2019-03-28T23:32:39.606Z,33.54
2019-03-28T23:35:09.373Z,33.48
2019-03-28T23:37:38.591Z,33.45
2019-03-28T23:40:08.822Z,33.84
2019-03-28T23:42:38.243Z,33.84
2019-03-28T23:45:11.844Z,33.37
2019-03-28T23:47:42.745Z,33.61
2019-03-28T23:50:12.524Z,33.53
2019-03-28T23:52:42.161Z,33.64
2019-03-28T23:55:12.247Z,33.92
2019-03-28T23:57:41.477Z,33.92
